sensor_id;sensor_type;location;lat;lon;timestamp;P1;durP1;ratioP1;P2;durP2;ratioP2
46765;SDS011;32527;51.986;5.842;2023-03-11T00:00:26;8.30;;;3.42;;
46765;SDS011;32527;51.986;5.842;2023-03-11T00:02:54;15.65;;;4.35;;
46765;SDS011;32527;51.986;5.842;2023-03-11T00:05:23;15.55;;;3.80;;
46765;SDS011;32527;51.986;5.842;2023-03-11T00:07:51;9.77;;;3.38;;
46765;SDS011;32527;51.986;5.842;2023-03-11T00:10:18;10.50;;;3.60;;
46765;SDS011;32527;51.986;5.842;2023-03-11T00:12:46;11.48;;;3.25;;
46765;SDS011;32527;51.986;5.842;2023-03-11T00:15:12;11.75;;;3.75;;
46765;SDS011;32527;51.986;5.842;2023-03-11T00:17:38;15.40;;;3.60;;
46765;SDS011;32527;51.986;5.842;2023-03-11T00:20:05;13.02;;;3.40;;
46765;SDS011;32527;51.986;5.842;2023-03-11T00:22:31;16.20;;;3.63;;
46765;SDS011;32527;51.986;5.842;2023-03-11T00:24:58;20.73;;;4.65;;
46765;SDS011;32527;51.986;5.842;2023-03-11T00:27:24;8.40;;;3.35;;
46765;SDS011;32527;51.986;5.842;2023-03-11T00:29:50;14.32;;;3.88;;
46765;SDS011;32527;51.986;5.842;2023-03-11T00:32:16;17.90;;;3.83;;
46765;SDS011;32527;51.986;5.842;2023-03-11T00:34:42;15.80;;;3.67;;
46765;SDS011;32527;51.986;5.842;2023-03-11T00:37:08;10.93;;;3.17;;
46765;SDS011;32527;51.986;5.842;2023-03-11T00:39:34;7.47;;;3.28;;
46765;SDS011;32527;51.986;5.842;2023-03-11T00:42:00;11.05;;;3.95;;
46765;SDS011;32527;51.986;5.842;2023-03-11T00:44:27;11.68;;;3.33;;
46765;SDS011;32527;51.986;5.842;2023-03-11T00:46:53;15.30;;;3.88;;
46765;SDS011;32527;51.986;5.842;2023-03-11T00:49:19;12.55;;;3.85;;
46765;SDS011;32527;51.986;5.842;2023-03-11T00:51:46;9.60;;;3.40;;
46765;SDS011;32527;51.986;5.842;2023-03-11T00:54:12;18.00;;;4.13;;
46765;SDS011;32527;51.986;5.842;2023-03-11T00:56:39;11.07;;;3.38;;
46765;SDS011;32527;51.986;5.842;2023-03-11T00:59:06;11.40;;;3.22;;
46765;SDS011;32527;51.986;5.842;2023-03-11T01:01:32;12.40;;;3.63;;
46765;SDS011;32527;51.986;5.842;2023-03-11T01:03:58;9.85;;;3.70;;
46765;SDS011;32527;51.986;5.842;2023-03-11T01:06:24;15.13;;;3.58;;
46765;SDS011;32527;51.986;5.842;2023-03-11T01:08:51;12.80;;;3.92;;
46765;SDS011;32527;51.986;5.842;2023-03-11T01:11:17;9.38;;;3.42;;
46765;SDS011;32527;51.986;5.842;2023-03-11T01:13:44;11.70;;;3.75;;
46765;SDS011;32527;51.986;5.842;2023-03-11T01:16:09;14.00;;;3.85;;
46765;SDS011;32527;51.986;5.842;2023-03-11T01:18:36;13.95;;;3.30;;
46765;SDS011;32527;51.986;5.842;2023-03-11T01:21:02;10.50;;;3.15;;
46765;SDS011;32527;51.986;5.842;2023-03-11T01:23:28;11.15;;;3.75;;
46765;SDS011;32527;51.986;5.842;2023-03-11T01:25:54;6.45;;;3.25;;
46765;SDS011;32527;51.986;5.842;2023-03-11T01:28:20;9.75;;;3.55;;
46765;SDS011;32527;51.986;5.842;2023-03-11T01:30:46;10.80;;;3.80;;
46765;SDS011;32527;51.986;5.842;2023-03-11T01:33:14;10.63;;;3.50;;
46765;SDS011;32527;51.986;5.842;2023-03-11T01:35:42;13.20;;;3.67;;
46765;SDS011;32527;51.986;5.842;2023-03-11T01:38:08;9.10;;;3.25;;
46765;SDS011;32527;51.986;5.842;2023-03-11T01:40:40;6.00;;;2.83;;
46765;SDS011;32527;51.986;5.842;2023-03-11T01:48:27;11.75;;;2.92;;
46765;SDS011;32527;51.986;5.842;2023-03-11T01:50:54;9.52;;;2.80;;
46765;SDS011;32527;51.986;5.842;2023-03-11T01:53:21;15.88;;;3.80;;
46765;SDS011;32527;51.986;5.842;2023-03-11T01:55:49;17.35;;;3.25;;
46765;SDS011;32527;51.986;5.842;2023-03-11T01:58:22;11.10;;;3.00;;
46765;SDS011;32527;51.986;5.842;2023-03-11T02:00:51;8.70;;;2.97;;
46765;SDS011;32527;51.986;5.842;2023-03-11T02:03:18;10.88;;;3.22;;
46765;SDS011;32527;51.986;5.842;2023-03-11T02:05:50;10.10;;;2.80;;
46765;SDS011;32527;51.986;5.842;2023-03-11T02:08:17;8.10;;;3.42;;
46765;SDS011;32527;51.986;5.842;2023-03-11T02:10:44;7.30;;;2.65;;
46765;SDS011;32527;51.986;5.842;2023-03-11T02:13:12;8.95;;;3.08;;
46765;SDS011;32527;51.986;5.842;2023-03-11T02:15:38;10.23;;;3.03;;
46765;SDS011;32527;51.986;5.842;2023-03-11T02:18:05;9.82;;;3.47;;
46765;SDS011;32527;51.986;5.842;2023-03-11T02:23:13;6.45;;;2.65;;
46765;SDS011;32527;51.986;5.842;2023-03-11T02:25:53;11.40;;;3.30;;
46765;SDS011;32527;51.986;5.842;2023-03-11T02:28:29;8.63;;;3.15;;
46765;SDS011;32527;51.986;5.842;2023-03-11T02:30:56;6.90;;;3.10;;
46765;SDS011;32527;51.986;5.842;2023-03-11T02:33:22;16.30;;;3.40;;
46765;SDS011;32527;51.986;5.842;2023-03-11T02:35:53;11.82;;;3.45;;
46765;SDS011;32527;51.986;5.842;2023-03-11T02:38:21;8.02;;;3.05;;
46765;SDS011;32527;51.986;5.842;2023-03-11T02:40:49;10.70;;;3.25;;
46765;SDS011;32527;51.986;5.842;2023-03-11T02:43:23;10.43;;;3.15;;
46765;SDS011;32527;51.986;5.842;2023-03-11T02:46:13;11.00;;;3.13;;
46765;SDS011;32527;51.986;5.842;2023-03-11T02:48:39;6.57;;;2.85;;
46765;SDS011;32527;51.986;5.842;2023-03-11T02:51:06;7.72;;;2.92;;
46765;SDS011;32527;51.986;5.842;2023-03-11T02:53:38;8.20;;;2.88;;
46765;SDS011;32527;51.986;5.842;2023-03-11T02:56:16;10.55;;;3.15;;
46765;SDS011;32527;51.986;5.842;2023-03-11T02:58:42;7.25;;;3.03;;
46765;SDS011;32527;51.986;5.842;2023-03-11T03:01:08;8.23;;;4.10;;
46765;SDS011;32527;51.986;5.842;2023-03-11T03:03:35;10.60;;;2.83;;
46765;SDS011;32527;51.986;5.842;2023-03-11T03:06:01;13.40;;;3.05;;
46765;SDS011;32527;51.986;5.842;2023-03-11T03:08:27;12.50;;;2.85;;
46765;SDS011;32527;51.986;5.842;2023-03-11T03:10:53;6.05;;;2.97;;
46765;SDS011;32527;51.986;5.842;2023-03-11T03:13:19;7.45;;;3.45;;
46765;SDS011;32527;51.986;5.842;2023-03-11T03:15:45;13.77;;;3.33;;
46765;SDS011;32527;51.986;5.842;2023-03-11T03:18:11;9.20;;;3.13;;
46765;SDS011;32527;51.986;5.842;2023-03-11T03:20:37;11.20;;;3.08;;
46765;SDS011;32527;51.986;5.842;2023-03-11T03:23:03;10.05;;;3.00;;
46765;SDS011;32527;51.986;5.842;2023-03-11T03:25:31;8.73;;;3.03;;
46765;SDS011;32527;51.986;5.842;2023-03-11T03:28:01;2.75;;;2.10;;
46765;SDS011;32527;51.986;5.842;2023-03-11T03:30:29;9.25;;;2.80;;
46765;SDS011;32527;51.986;5.842;2023-03-11T03:32:55;12.57;;;2.83;;
46765;SDS011;32527;51.986;5.842;2023-03-11T03:35:21;9.27;;;2.90;;
46765;SDS011;32527;51.986;5.842;2023-03-11T03:38:16;6.47;;;2.70;;
46765;SDS011;32527;51.986;5.842;2023-03-11T03:40:46;7.63;;;2.47;;
46765;SDS011;32527;51.986;5.842;2023-03-11T03:43:14;10.27;;;3.03;;
46765;SDS011;32527;51.986;5.842;2023-03-11T03:45:42;8.10;;;2.65;;
46765;SDS011;32527;51.986;5.842;2023-03-11T03:48:09;10.63;;;2.58;;
46765;SDS011;32527;51.986;5.842;2023-03-11T03:50:40;7.93;;;2.40;;
46765;SDS011;32527;51.986;5.842;2023-03-11T03:53:07;9.77;;;2.70;;
46765;SDS011;32527;51.986;5.842;2023-03-11T03:55:34;12.93;;;2.03;;
46765;SDS011;32527;51.986;5.842;2023-03-11T03:58:00;5.45;;;2.38;;
46765;SDS011;32527;51.986;5.842;2023-03-11T04:00:31;7.35;;;2.42;;
46765;SDS011;32527;51.986;5.842;2023-03-11T04:03:00;9.25;;;2.60;;
46765;SDS011;32527;51.986;5.842;2023-03-11T04:05:37;8.05;;;2.83;;
46765;SDS011;32527;51.986;5.842;2023-03-11T04:08:03;7.55;;;2.75;;
46765;SDS011;32527;51.986;5.842;2023-03-11T04:10:29;11.70;;;2.95;;
46765;SDS011;32527;51.986;5.842;2023-03-11T04:12:55;11.23;;;2.67;;
46765;SDS011;32527;51.986;5.842;2023-03-11T04:15:21;8.98;;;2.63;;
46765;SDS011;32527;51.986;5.842;2023-03-11T04:17:47;7.60;;;2.58;;
46765;SDS011;32527;51.986;5.842;2023-03-11T04:20:14;4.57;;;2.30;;
46765;SDS011;32527;51.986;5.842;2023-03-11T04:22:43;6.25;;;2.97;;
46765;SDS011;32527;51.986;5.842;2023-03-11T04:25:09;8.90;;;2.25;;
46765;SDS011;32527;51.986;5.842;2023-03-11T04:27:35;5.47;;;2.50;;
46765;SDS011;32527;51.986;5.842;2023-03-11T04:30:03;5.85;;;2.42;;
46765;SDS011;32527;51.986;5.842;2023-03-11T04:32:32;11.68;;;2.80;;
46765;SDS011;32527;51.986;5.842;2023-03-11T04:34:58;8.98;;;2.58;;
46765;SDS011;32527;51.986;5.842;2023-03-11T04:37:28;9.45;;;2.65;;
46765;SDS011;32527;51.986;5.842;2023-03-11T04:39:53;11.05;;;3.00;;
46765;SDS011;32527;51.986;5.842;2023-03-11T04:42:19;9.82;;;3.28;;
46765;SDS011;32527;51.986;5.842;2023-03-11T04:44:46;7.15;;;2.22;;
46765;SDS011;32527;51.986;5.842;2023-03-11T04:47:13;10.38;;;2.47;;
46765;SDS011;32527;51.986;5.842;2023-03-11T04:49:39;2.83;;;1.92;;
46765;SDS011;32527;51.986;5.842;2023-03-11T04:52:05;4.70;;;2.45;;
46765;SDS011;32527;51.986;5.842;2023-03-11T04:54:31;10.48;;;2.45;;
46765;SDS011;32527;51.986;5.842;2023-03-11T04:56:58;6.00;;;2.63;;
46765;SDS011;32527;51.986;5.842;2023-03-11T04:59:24;2.60;;;1.77;;
46765;SDS011;32527;51.986;5.842;2023-03-11T05:01:51;5.65;;;2.38;;
46765;SDS011;32527;51.986;5.842;2023-03-11T05:04:18;4.40;;;2.20;;
46765;SDS011;32527;51.986;5.842;2023-03-11T05:06:44;12.95;;;2.83;;
46765;SDS011;32527;51.986;5.842;2023-03-11T05:09:11;7.65;;;2.40;;
46765;SDS011;32527;51.986;5.842;2023-03-11T05:11:38;5.63;;;2.20;;
46765;SDS011;32527;51.986;5.842;2023-03-11T05:14:05;13.85;;;2.90;;
46765;SDS011;32527;51.986;5.842;2023-03-11T05:16:31;3.72;;;2.22;;
46765;SDS011;32527;51.986;5.842;2023-03-11T05:18:57;5.78;;;2.20;;
46765;SDS011;32527;51.986;5.842;2023-03-11T05:21:23;6.10;;;2.17;;
46765;SDS011;32527;51.986;5.842;2023-03-11T05:23:51;6.57;;;2.65;;
46765;SDS011;32527;51.986;5.842;2023-03-11T05:26:17;6.57;;;2.78;;
46765;SDS011;32527;51.986;5.842;2023-03-11T05:28:43;3.72;;;2.33;;
46765;SDS011;32527;51.986;5.842;2023-03-11T05:31:10;6.57;;;2.67;;
46765;SDS011;32527;51.986;5.842;2023-03-11T05:33:37;12.00;;;2.45;;
46765;SDS011;32527;51.986;5.842;2023-03-11T05:36:06;13.70;;;3.22;;
46765;SDS011;32527;51.986;5.842;2023-03-11T05:38:36;6.20;;;2.47;;
46765;SDS011;32527;51.986;5.842;2023-03-11T05:41:02;5.28;;;2.58;;
46765;SDS011;32527;51.986;5.842;2023-03-11T05:43:29;4.00;;;2.03;;
46765;SDS011;32527;51.986;5.842;2023-03-11T05:45:55;5.35;;;2.33;;
46765;SDS011;32527;51.986;5.842;2023-03-11T05:48:21;5.70;;;2.60;;
46765;SDS011;32527;51.986;5.842;2023-03-11T05:50:47;8.13;;;3.00;;
46765;SDS011;32527;51.986;5.842;2023-03-11T05:53:14;11.57;;;2.75;;
46765;SDS011;32527;51.986;5.842;2023-03-11T05:55:41;7.68;;;3.17;;
46765;SDS011;32527;51.986;5.842;2023-03-11T05:58:07;6.05;;;2.13;;
46765;SDS011;32527;51.986;5.842;2023-03-11T06:00:33;6.30;;;2.72;;
46765;SDS011;32527;51.986;5.842;2023-03-11T06:03:02;8.25;;;2.80;;
46765;SDS011;32527;51.986;5.842;2023-03-11T06:05:28;5.88;;;2.55;;
46765;SDS011;32527;51.986;5.842;2023-03-11T06:07:55;6.80;;;2.92;;
46765;SDS011;32527;51.986;5.842;2023-03-11T06:10:22;6.75;;;3.30;;
46765;SDS011;32527;51.986;5.842;2023-03-11T06:12:48;7.45;;;3.03;;
46765;SDS011;32527;51.986;5.842;2023-03-11T06:15:22;4.45;;;2.55;;
46765;SDS011;32527;51.986;5.842;2023-03-11T06:17:48;12.73;;;3.58;;
46765;SDS011;32527;51.986;5.842;2023-03-11T06:20:15;9.65;;;2.92;;
46765;SDS011;32527;51.986;5.842;2023-03-11T06:22:42;5.47;;;2.25;;
46765;SDS011;32527;51.986;5.842;2023-03-11T06:25:09;12.43;;;3.03;;
46765;SDS011;32527;51.986;5.842;2023-03-11T06:27:38;13.43;;;3.13;;
46765;SDS011;32527;51.986;5.842;2023-03-11T06:30:06;3.95;;;2.60;;
46765;SDS011;32527;51.986;5.842;2023-03-11T06:32:38;5.22;;;3.28;;
46765;SDS011;32527;51.986;5.842;2023-03-11T06:35:06;7.05;;;2.53;;
46765;SDS011;32527;51.986;5.842;2023-03-11T06:37:34;6.72;;;2.60;;
46765;SDS011;32527;51.986;5.842;2023-03-11T06:40:01;9.07;;;2.95;;
46765;SDS011;32527;51.986;5.842;2023-03-11T06:42:27;4.20;;;2.42;;
46765;SDS011;32527;51.986;5.842;2023-03-11T06:44:56;7.05;;;3.20;;
46765;SDS011;32527;51.986;5.842;2023-03-11T06:47:23;8.63;;;3.28;;
46765;SDS011;32527;51.986;5.842;2023-03-11T06:49:49;9.13;;;2.80;;
46765;SDS011;32527;51.986;5.842;2023-03-11T06:52:15;10.25;;;3.30;;
46765;SDS011;32527;51.986;5.842;2023-03-11T06:54:41;9.60;;;3.85;;
46765;SDS011;32527;51.986;5.842;2023-03-11T06:57:07;9.20;;;3.65;;
46765;SDS011;32527;51.986;5.842;2023-03-11T06:59:34;5.90;;;3.20;;
46765;SDS011;32527;51.986;5.842;2023-03-11T07:02:01;10.85;;;3.20;;
46765;SDS011;32527;51.986;5.842;2023-03-11T07:04:28;8.13;;;3.30;;
46765;SDS011;32527;51.986;5.842;2023-03-11T07:06:55;7.53;;;3.00;;
46765;SDS011;32527;51.986;5.842;2023-03-11T07:09:21;8.30;;;2.70;;
46765;SDS011;32527;51.986;5.842;2023-03-11T07:11:50;6.25;;;2.85;;
46765;SDS011;32527;51.986;5.842;2023-03-11T07:14:23;9.65;;;2.85;;
46765;SDS011;32527;51.986;5.842;2023-03-11T07:16:53;5.90;;;3.03;;
46765;SDS011;32527;51.986;5.842;2023-03-11T07:19:27;8.48;;;2.67;;
46765;SDS011;32527;51.986;5.842;2023-03-11T07:21:53;5.15;;;2.70;;
46765;SDS011;32527;51.986;5.842;2023-03-11T07:24:18;5.75;;;2.60;;
46765;SDS011;32527;51.986;5.842;2023-03-11T07:26:45;6.00;;;2.47;;
46765;SDS011;32527;51.986;5.842;2023-03-11T07:29:11;4.90;;;2.55;;
46765;SDS011;32527;51.986;5.842;2023-03-11T07:31:37;8.43;;;2.65;;
46765;SDS011;32527;51.986;5.842;2023-03-11T07:34:04;8.60;;;3.03;;
46765;SDS011;32527;51.986;5.842;2023-03-11T07:36:35;7.80;;;2.90;;
46765;SDS011;32527;51.986;5.842;2023-03-11T07:39:02;5.80;;;2.45;;
46765;SDS011;32527;51.986;5.842;2023-03-11T07:41:30;9.35;;;3.22;;
46765;SDS011;32527;51.986;5.842;2023-03-11T07:43:58;6.28;;;2.80;;
46765;SDS011;32527;51.986;5.842;2023-03-11T07:46:25;4.80;;;2.70;;
46765;SDS011;32527;51.986;5.842;2023-03-11T07:48:51;4.70;;;2.60;;
46765;SDS011;32527;51.986;5.842;2023-03-11T07:51:22;6.30;;;2.42;;
46765;SDS011;32527;51.986;5.842;2023-03-11T07:53:51;6.22;;;2.90;;
46765;SDS011;32527;51.986;5.842;2023-03-11T07:56:18;8.32;;;2.85;;
46765;SDS011;32527;51.986;5.842;2023-03-11T07:58:45;4.32;;;2.40;;
46765;SDS011;32527;51.986;5.842;2023-03-11T08:01:12;3.85;;;2.20;;
46765;SDS011;32527;51.986;5.842;2023-03-11T08:03:43;9.18;;;3.05;;
46765;SDS011;32527;51.986;5.842;2023-03-11T08:06:11;8.18;;;2.05;;
46765;SDS011;32527;51.986;5.842;2023-03-11T08:08:40;6.32;;;2.10;;
46765;SDS011;32527;51.986;5.842;2023-03-11T08:11:10;4.25;;;2.05;;
46765;SDS011;32527;51.986;5.842;2023-03-11T08:13:40;6.18;;;2.20;;
46765;SDS011;32527;51.986;5.842;2023-03-11T08:16:11;5.00;;;2.00;;
46765;SDS011;32527;51.986;5.842;2023-03-11T08:19:22;5.38;;;2.22;;
46765;SDS011;32527;51.986;5.842;2023-03-11T08:22:06;4.75;;;2.28;;
46765;SDS011;32527;51.986;5.842;2023-03-11T08:25:50;4.00;;;2.20;;
46765;SDS011;32527;51.986;5.842;2023-03-11T08:32:32;4.82;;;2.20;;
46765;SDS011;32527;51.986;5.842;2023-03-11T08:35:09;6.72;;;2.10;;
46765;SDS011;32527;51.986;5.842;2023-03-11T08:37:53;3.85;;;1.85;;
46765;SDS011;32527;51.986;5.842;2023-03-11T08:40:19;2.17;;;1.55;;
46765;SDS011;32527;51.986;5.842;2023-03-11T08:42:53;5.20;;;2.08;;
46765;SDS011;32527;51.986;5.842;2023-03-11T08:45:20;7.18;;;2.22;;
46765;SDS011;32527;51.986;5.842;2023-03-11T08:47:50;7.95;;;2.42;;
46765;SDS011;32527;51.986;5.842;2023-03-11T08:50:22;5.97;;;1.98;;
46765;SDS011;32527;51.986;5.842;2023-03-11T08:52:57;5.65;;;1.98;;
46765;SDS011;32527;51.986;5.842;2023-03-11T08:55:27;3.78;;;2.25;;
46765;SDS011;32527;51.986;5.842;2023-03-11T08:57:59;3.50;;;1.73;;
46765;SDS011;32527;51.986;5.842;2023-03-11T09:00:28;3.90;;;1.60;;
46765;SDS011;32527;51.986;5.842;2023-03-11T09:02:54;9.55;;;2.30;;
46765;SDS011;32527;51.986;5.842;2023-03-11T09:05:24;5.40;;;1.83;;
46765;SDS011;32527;51.986;5.842;2023-03-11T09:07:58;5.35;;;2.10;;
46765;SDS011;32527;51.986;5.842;2023-03-11T09:10:34;4.68;;;1.88;;
46765;SDS011;32527;51.986;5.842;2023-03-11T09:13:25;9.70;;;2.45;;
46765;SDS011;32527;51.986;5.842;2023-03-11T09:16:22;4.72;;;2.28;;
46765;SDS011;32527;51.986;5.842;2023-03-11T09:18:49;5.80;;;2.35;;
46765;SDS011;32527;51.986;5.842;2023-03-11T09:21:16;6.03;;;2.50;;
46765;SDS011;32527;51.986;5.842;2023-03-11T09:23:49;4.60;;;2.13;;
46765;SDS011;32527;51.986;5.842;2023-03-11T09:26:16;3.30;;;1.80;;
46765;SDS011;32527;51.986;5.842;2023-03-11T09:28:50;4.80;;;1.80;;
46765;SDS011;32527;51.986;5.842;2023-03-11T09:31:17;3.33;;;1.98;;
46765;SDS011;32527;51.986;5.842;2023-03-11T09:33:46;6.80;;;2.13;;
46765;SDS011;32527;51.986;5.842;2023-03-11T09:36:16;5.90;;;1.77;;
46765;SDS011;32527;51.986;5.842;2023-03-11T09:38:43;5.50;;;1.92;;
46765;SDS011;32527;51.986;5.842;2023-03-11T09:52:01;5.70;;;1.70;;
46765;SDS011;32527;51.986;5.842;2023-03-11T11:30:36;4.82;;;1.70;;
46765;SDS011;32527;51.986;5.842;2023-03-11T11:33:25;5.18;;;1.63;;
46765;SDS011;32527;51.986;5.842;2023-03-11T11:35:54;3.88;;;1.90;;
46765;SDS011;32527;51.986;5.842;2023-03-11T11:38:23;2.00;;;1.23;;
46765;SDS011;32527;51.986;5.842;2023-03-11T11:40:50;2.67;;;1.42;;
46765;SDS011;32527;51.986;5.842;2023-03-11T11:58:30;7.40;;;2.58;;
46765;SDS011;32527;51.986;5.842;2023-03-11T12:01:09;2.42;;;1.48;;
46765;SDS011;32527;51.986;5.842;2023-03-11T12:06:13;10.05;;;2.38;;
46765;SDS011;32527;51.986;5.842;2023-03-11T12:11:41;3.42;;;1.58;;
46765;SDS011;32527;51.986;5.842;2023-03-11T12:28:02;1.42;;;1.27;;
46765;SDS011;32527;51.986;5.842;2023-03-11T12:30:55;3.85;;;1.67;;
46765;SDS011;32527;51.986;5.842;2023-03-11T12:36:23;3.50;;;1.60;;
46765;SDS011;32527;51.986;5.842;2023-03-11T12:38:55;5.97;;;1.83;;
46765;SDS011;32527;51.986;5.842;2023-03-11T12:41:38;4.72;;;1.42;;
46765;SDS011;32527;51.986;5.842;2023-03-11T12:44:25;5.00;;;1.80;;
46765;SDS011;32527;51.986;5.842;2023-03-11T12:49:23;2.30;;;1.20;;
46765;SDS011;32527;51.986;5.842;2023-03-11T12:54:41;8.30;;;1.95;;
46765;SDS011;32527;51.986;5.842;2023-03-11T12:59:48;8.02;;;2.72;;
46765;SDS011;32527;51.986;5.842;2023-03-11T13:08:19;1.25;;;0.93;;
46765;SDS011;32527;51.986;5.842;2023-03-11T13:10:45;4.57;;;1.42;;
46765;SDS011;32527;51.986;5.842;2023-03-11T13:15:47;5.47;;;1.90;;
46765;SDS011;32527;51.986;5.842;2023-03-11T13:25:38;4.50;;;1.50;;
46765;SDS011;32527;51.986;5.842;2023-03-11T13:33:55;2.97;;;1.50;;
46765;SDS011;32527;51.986;5.842;2023-03-11T13:41:49;3.25;;;1.25;;
46765;SDS011;32527;51.986;5.842;2023-03-11T13:44:29;6.03;;;1.70;;
46765;SDS011;32527;51.986;5.842;2023-03-11T13:47:09;5.97;;;2.25;;
46765;SDS011;32527;51.986;5.842;2023-03-11T13:49:41;3.70;;;1.88;;
46765;SDS011;32527;51.986;5.842;2023-03-11T13:52:24;6.95;;;2.75;;
46765;SDS011;32527;51.986;5.842;2023-03-11T13:55:08;6.28;;;2.33;;
46765;SDS011;32527;51.986;5.842;2023-03-11T13:57:53;6.68;;;2.70;;
46765;SDS011;32527;51.986;5.842;2023-03-11T14:00:24;6.13;;;2.22;;
46765;SDS011;32527;51.986;5.842;2023-03-11T14:02:53;7.03;;;2.55;;
46765;SDS011;32527;51.986;5.842;2023-03-11T14:05:31;3.58;;;1.95;;
46765;SDS011;32527;51.986;5.842;2023-03-11T14:10:53;2.72;;;1.73;;
46765;SDS011;32527;51.986;5.842;2023-03-11T14:13:22;4.68;;;1.60;;
46765;SDS011;32527;51.986;5.842;2023-03-11T14:15:51;5.05;;;1.67;;
46765;SDS011;32527;51.986;5.842;2023-03-11T14:18:41;4.63;;;1.73;;
46765;SDS011;32527;51.986;5.842;2023-03-11T14:21:20;2.33;;;1.63;;
46765;SDS011;32527;51.986;5.842;2023-03-11T14:23:48;2.13;;;1.35;;
46765;SDS011;32527;51.986;5.842;2023-03-11T14:29:06;6.50;;;2.17;;
46765;SDS011;32527;51.986;5.842;2023-03-11T14:31:36;2.05;;;1.45;;
46765;SDS011;32527;51.986;5.842;2023-03-11T14:34:11;4.63;;;2.50;;
46765;SDS011;32527;51.986;5.842;2023-03-11T14:36:50;7.57;;;2.13;;
46765;SDS011;32527;51.986;5.842;2023-03-11T14:41:52;3.67;;;1.70;;
46765;SDS011;32527;51.986;5.842;2023-03-11T14:44:25;4.57;;;1.63;;
46765;SDS011;32527;51.986;5.842;2023-03-11T14:46:53;3.75;;;2.00;;
46765;SDS011;32527;51.986;5.842;2023-03-11T14:49:28;4.75;;;1.92;;
46765;SDS011;32527;51.986;5.842;2023-03-11T14:51:56;3.80;;;1.80;;
46765;SDS011;32527;51.986;5.842;2023-03-11T14:54:26;6.88;;;2.15;;
46765;SDS011;32527;51.986;5.842;2023-03-11T14:56:59;4.22;;;1.73;;
46765;SDS011;32527;51.986;5.842;2023-03-11T14:59:29;4.75;;;2.38;;
46765;SDS011;32527;51.986;5.842;2023-03-11T15:01:58;5.18;;;2.95;;
46765;SDS011;32527;51.986;5.842;2023-03-11T15:04:48;6.07;;;2.47;;
46765;SDS011;32527;51.986;5.842;2023-03-11T15:07:14;5.82;;;2.30;;
46765;SDS011;32527;51.986;5.842;2023-03-11T15:09:41;3.95;;;1.70;;
46765;SDS011;32527;51.986;5.842;2023-03-11T15:12:27;5.25;;;1.88;;
46765;SDS011;32527;51.986;5.842;2023-03-11T15:15:01;4.82;;;1.83;;
46765;SDS011;32527;51.986;5.842;2023-03-11T15:17:28;7.18;;;1.85;;
46765;SDS011;32527;51.986;5.842;2023-03-11T15:19:59;4.68;;;2.10;;
46765;SDS011;32527;51.986;5.842;2023-03-11T15:22:26;2.70;;;1.33;;
46765;SDS011;32527;51.986;5.842;2023-03-11T15:25:02;2.45;;;1.42;;
46765;SDS011;32527;51.986;5.842;2023-03-11T15:27:38;5.63;;;1.90;;
46765;SDS011;32527;51.986;5.842;2023-03-11T15:30:16;3.10;;;1.70;;
46765;SDS011;32527;51.986;5.842;2023-03-11T15:32:50;8.20;;;2.20;;
46765;SDS011;32527;51.986;5.842;2023-03-11T15:37:49;5.55;;;1.83;;
46765;SDS011;32527;51.986;5.842;2023-03-11T15:40:34;7.95;;;1.90;;
46765;SDS011;32527;51.986;5.842;2023-03-11T15:49:39;6.55;;;1.60;;
46765;SDS011;32527;51.986;5.842;2023-03-11T15:52:05;5.13;;;1.67;;
46765;SDS011;32527;51.986;5.842;2023-03-11T15:54:31;8.80;;;3.13;;
46765;SDS011;32527;51.986;5.842;2023-03-11T15:56:58;7.90;;;2.53;;
46765;SDS011;32527;51.986;5.842;2023-03-11T15:59:25;7.25;;;1.90;;
46765;SDS011;32527;51.986;5.842;2023-03-11T16:01:52;2.45;;;1.65;;
46765;SDS011;32527;51.986;5.842;2023-03-11T16:04:30;2.53;;;1.13;;
46765;SDS011;32527;51.986;5.842;2023-03-11T16:06:57;3.40;;;1.73;;
46765;SDS011;32527;51.986;5.842;2023-03-11T16:13:12;3.35;;;1.25;;
46765;SDS011;32527;51.986;5.842;2023-03-11T16:15:41;2.97;;;1.50;;
46765;SDS011;32527;51.986;5.842;2023-03-11T16:29:13;10.27;;;2.70;;
46765;SDS011;32527;51.986;5.842;2023-03-11T16:40:05;3.40;;;1.45;;
46765;SDS011;32527;51.986;5.842;2023-03-11T16:43:56;2.35;;;1.63;;
46765;SDS011;32527;51.986;5.842;2023-03-11T16:47:52;7.07;;;1.92;;
46765;SDS011;32527;51.986;5.842;2023-03-11T16:50:21;12.55;;;3.53;;
46765;SDS011;32527;51.986;5.842;2023-03-11T16:52:48;4.38;;;2.63;;
46765;SDS011;32527;51.986;5.842;2023-03-11T16:55:15;5.32;;;2.40;;
46765;SDS011;32527;51.986;5.842;2023-03-11T16:57:41;5.60;;;1.77;;
46765;SDS011;32527;51.986;5.842;2023-03-11T17:00:08;4.82;;;2.05;;
46765;SDS011;32527;51.986;5.842;2023-03-11T17:02:35;3.88;;;1.80;;
46765;SDS011;32527;51.986;5.842;2023-03-11T17:05:02;4.68;;;1.77;;
46765;SDS011;32527;51.986;5.842;2023-03-11T17:07:29;3.92;;;2.05;;
46765;SDS011;32527;51.986;5.842;2023-03-11T17:09:56;4.95;;;1.92;;
46765;SDS011;32527;51.986;5.842;2023-03-11T17:12:22;3.65;;;2.42;;
46765;SDS011;32527;51.986;5.842;2023-03-11T17:14:49;4.25;;;1.98;;
46765;SDS011;32527;51.986;5.842;2023-03-11T17:17:15;4.88;;;2.75;;
46765;SDS011;32527;51.986;5.842;2023-03-11T17:19:41;7.68;;;3.80;;
46765;SDS011;32527;51.986;5.842;2023-03-11T17:22:08;10.63;;;4.93;;
46765;SDS011;32527;51.986;5.842;2023-03-11T17:24:34;7.53;;;4.18;;
46765;SDS011;32527;51.986;5.842;2023-03-11T17:27:01;7.32;;;3.70;;
46765;SDS011;32527;51.986;5.842;2023-03-11T17:29:27;7.18;;;3.47;;
46765;SDS011;32527;51.986;5.842;2023-03-11T17:31:53;8.77;;;3.38;;
46765;SDS011;32527;51.986;5.842;2023-03-11T17:34:19;7.53;;;4.40;;
46765;SDS011;32527;51.986;5.842;2023-03-11T17:36:45;8.02;;;4.25;;
46765;SDS011;32527;51.986;5.842;2023-03-11T17:39:11;8.38;;;4.68;;
46765;SDS011;32527;51.986;5.842;2023-03-11T17:41:37;10.07;;;4.75;;
46765;SDS011;32527;51.986;5.842;2023-03-11T17:44:03;9.02;;;4.68;;
46765;SDS011;32527;51.986;5.842;2023-03-11T17:46:31;7.22;;;4.30;;
46765;SDS011;32527;51.986;5.842;2023-03-11T17:48:57;8.50;;;3.78;;
46765;SDS011;32527;51.986;5.842;2023-03-11T17:51:37;9.82;;;4.68;;
46765;SDS011;32527;51.986;5.842;2023-03-11T17:54:04;11.07;;;4.55;;
46765;SDS011;32527;51.986;5.842;2023-03-11T17:56:30;8.30;;;3.67;;
46765;SDS011;32527;51.986;5.842;2023-03-11T17:58:58;8.20;;;4.00;;
46765;SDS011;32527;51.986;5.842;2023-03-11T18:01:25;4.57;;;3.10;;
46765;SDS011;32527;51.986;5.842;2023-03-11T18:03:52;6.70;;;3.10;;
46765;SDS011;32527;51.986;5.842;2023-03-11T18:06:31;11.23;;;3.00;;
46765;SDS011;32527;51.986;5.842;2023-03-11T18:09:04;8.25;;;3.60;;
46765;SDS011;32527;51.986;5.842;2023-03-11T18:11:50;9.48;;;5.00;;
46765;SDS011;32527;51.986;5.842;2023-03-11T18:14:25;10.60;;;5.30;;
46765;SDS011;32527;51.986;5.842;2023-03-11T18:17:29;13.15;;;6.68;;
46765;SDS011;32527;51.986;5.842;2023-03-11T18:20:31;16.55;;;7.70;;
46765;SDS011;32527;51.986;5.842;2023-03-11T18:22:57;19.10;;;8.93;;
46765;SDS011;32527;51.986;5.842;2023-03-11T18:25:23;16.42;;;8.30;;
46765;SDS011;32527;51.986;5.842;2023-03-11T18:27:51;20.25;;;9.25;;
46765;SDS011;32527;51.986;5.842;2023-03-11T18:30:17;19.90;;;9.50;;
46765;SDS011;32527;51.986;5.842;2023-03-11T18:32:43;19.50;;;10.18;;
46765;SDS011;32527;51.986;5.842;2023-03-11T18:35:09;15.60;;;8.10;;
46765;SDS011;32527;51.986;5.842;2023-03-11T18:37:38;22.70;;;10.23;;
46765;SDS011;32527;51.986;5.842;2023-03-11T18:40:05;24.50;;;9.52;;
46765;SDS011;32527;51.986;5.842;2023-03-11T18:42:31;25.40;;;10.55;;
46765;SDS011;32527;51.986;5.842;2023-03-11T18:45:00;19.33;;;9.73;;
46765;SDS011;32527;51.986;5.842;2023-03-11T18:47:26;24.42;;;10.38;;
46765;SDS011;32527;51.986;5.842;2023-03-11T18:49:52;22.75;;;11.05;;
46765;SDS011;32527;51.986;5.842;2023-03-11T18:52:19;21.60;;;9.77;;